createdAt,value
2023-03-13T05:25:22.757Z,100439.12
2023-03-13T05:29:27.170Z,100439.12
2023-03-13T05:33:30.740Z,100467.25
2023-03-13T05:37:35.203Z,100470.81
2023-03-13T05:41:39.943Z,100472.91
2023-03-13T05:45:44.789Z,100473.38
2023-03-13T05:49:47.828Z,100476.50
2023-03-13T05:53:51.634Z,100468.66
2023-03-13T05:57:55.320Z,100482.94
2023-03-13T06:01:58.842Z,100481.28
2023-03-13T06:06:02.787Z,100483.78
2023-03-13T06:10:06.404Z,100485.34
2023-03-13T06:14:09.466Z,100479.16
2023-03-13T06:18:12.889Z,100471.63
2023-03-13T06:22:17.248Z,100469.50
2023-03-13T06:26:19.935Z,100472.34
2023-03-13T06:30:23.010Z,100464.53
2023-03-13T06:34:25.897Z,100467.66
2023-03-13T06:38:29.585Z,100461.00
2023-03-13T06:42:32.246Z,100474.25
2023-03-13T06:46:35.414Z,100471.97
2023-03-13T06:50:41.995Z,100473.63
2023-03-13T06:54:45.221Z,100464.13
2023-03-13T06:59:04.056Z,100467.28
2023-03-13T07:03:07.105Z,100473.22
2023-03-13T07:07:14.966Z,100476.19
2023-03-13T07:11:24.071Z,100467.75
2023-03-13T07:15:38.494Z,100470.84
2023-03-13T07:19:41.549Z,100462.50
2023-03-13T07:23:45.705Z,100464.34
2023-03-13T07:27:52.253Z,100464.28
2023-03-13T07:31:55.271Z,100459.75
2023-03-13T07:35:58.752Z,100473.84
2023-03-13T07:40:01.532Z,100450.59
2023-03-13T07:44:04.673Z,100455.22
2023-03-13T07:48:08.003Z,100456.50
2023-03-13T07:52:11.618Z,100447.34
2023-03-13T07:56:16.985Z,100433.56
2023-03-13T08:00:20.722Z,100436.81
2023-03-13T08:04:24.225Z,100431.78
2023-03-13T08:08:27.272Z,100425.47
2023-03-13T08:12:37.669Z,100411.25
2023-03-13T08:16:40.393Z,100401.31
2023-03-13T08:20:45.519Z,100398.56
2023-03-13T08:24:48.640Z,100394.09
2023-03-13T08:29:19.092Z,100392.66
2023-03-13T08:33:22.719Z,100392.91
2023-03-13T08:37:28.561Z,100375.06
2023-03-13T08:42:05.551Z,100391.16
2023-03-13T08:46:18.434Z,100369.19
2023-03-13T08:50:22.852Z,100369.63
2023-03-13T08:54:26.008Z,100375.47
2023-03-13T08:58:28.884Z,100363.53
2023-03-13T09:02:32.098Z,100360.31
2023-03-13T09:06:36.417Z,100354.59
2023-03-13T09:10:39.333Z,100346.94
2023-03-13T09:14:42.217Z,100346.72
2023-03-13T09:18:46.073Z,100358.59
2023-03-13T09:22:48.774Z,100345.25
2023-03-13T09:27:00.597Z,100351.88
2023-03-13T09:31:11.235Z,100344.44
2023-03-13T09:35:14.367Z,100341.28
2023-03-13T09:39:17.074Z,100343.41
2023-03-13T09:43:26.348Z,100334.59
2023-03-13T09:47:58.252Z,100334.44
2023-03-13T09:52:21.991Z,100315.66
2023-03-13T09:56:29.365Z,100311.19
2023-03-13T10:00:39.880Z,100297.00
2023-03-13T10:04:51.241Z,100306.59
2023-03-13T10:08:53.979Z,100299.91
2023-03-13T10:13:04.118Z,100292.22
2023-03-13T10:17:39.333Z,100295.72
2023-03-13T10:21:46.311Z,100284.37
2023-03-13T10:25:49.891Z,100285.78
2023-03-13T10:29:55.897Z,100276.69
2023-03-13T10:34:12.337Z,100289.59
2023-03-13T10:38:20.428Z,100263.09
2023-03-13T10:42:35.405Z,100273.84
2023-03-13T10:46:42.326Z,100271.22
2023-03-13T10:50:47.791Z,100253.78
2023-03-13T10:54:50.805Z,100256.19
2023-03-13T10:58:55.292Z,100249.06
2023-03-13T11:02:59.689Z,100258.16
2023-03-13T11:07:14.265Z,100247.09
2023-03-13T11:11:20.970Z,100240.47
2023-03-13T11:15:33.389Z,100234.44
2023-03-13T11:19:46.150Z,100224.00
2023-03-13T11:23:55.012Z,100218.81
2023-03-13T11:28:26.441Z,100219.59
2023-03-13T11:32:37.475Z,100207.56
2023-03-13T11:36:52.907Z,100208.22
2023-03-13T11:41:22.756Z,100212.12
2023-03-13T11:45:41.332Z,100196.87
2023-03-13T11:50:26.591Z,100180.50
2023-03-13T11:55:02.241Z,100172.50
2023-03-13T11:59:49.245Z,100153.25
2023-03-13T12:04:25.913Z,100155.19
2023-03-13T12:08:34.570Z,100140.84
2023-03-13T12:12:57.755Z,100144.66
2023-03-13T12:17:10.279Z,100148.63
2023-03-13T12:21:42.883Z,100136.31
2023-03-13T12:26:12.551Z,100119.56
2023-03-13T12:30:23.450Z,100144.06
2023-03-13T12:34:36.684Z,100119.00
2023-03-13T12:39:05.079Z,100099.50
2023-03-13T12:43:25.346Z,100102.00
2023-03-13T12:47:40.922Z,100093.78
2023-03-13T12:51:46.926Z,100074.13
2023-03-13T12:55:57.801Z,100072.84
2023-03-13T13:00:28.291Z,100079.25
2023-03-13T13:04:42.301Z,100063.09
2023-03-13T13:08:44.930Z,100063.75
2023-03-13T13:13:17.292Z,100065.81
2023-03-13T13:17:26.968Z,100043.75
2023-03-13T13:21:31.228Z,100037.31
2023-03-13T13:25:35.560Z,100024.88
2023-03-13T13:29:38.501Z,100042.50
2023-03-13T13:33:41.389Z,100027.53
2023-03-13T13:37:49.394Z,100015.28
2023-03-13T13:41:52.434Z,100015.03
2023-03-13T13:46:03.211Z,100012.41
2023-03-13T13:50:20.932Z,100024.38
2023-03-13T13:54:42.384Z,100016.53
2023-03-13T13:58:46.214Z,100019.31
2023-03-13T14:02:54.041Z,100002.38
2023-03-13T14:07:01.586Z,100001.47
2023-03-13T14:11:06.217Z,100020.13
2023-03-13T14:15:23.592Z,99982.53
2023-03-13T14:19:44.668Z,99985.31
2023-03-13T14:23:47.851Z,99977.66
2023-03-13T14:27:51.763Z,99971.31
2023-03-13T14:32:00.931Z,99953.47
2023-03-13T14:36:03.966Z,99948.22
2023-03-13T14:40:29.882Z,99961.19
2023-03-13T14:44:37.346Z,99977.00
2023-03-13T14:48:46.509Z,99965.38
2023-03-13T14:52:52.842Z,99956.47
2023-03-13T14:57:16.328Z,99957.97
2023-03-13T15:01:26.739Z,99949.59
2023-03-13T15:05:32.084Z,99962.06
2023-03-13T15:09:41.911Z,99947.75
2023-03-13T15:13:45.093Z,99945.25
2023-03-13T15:17:47.738Z,99939.16
2023-03-13T15:21:54.959Z,99926.81
2023-03-13T15:25:57.697Z,99929.69
2023-03-13T15:30:00.767Z,99927.00
2023-03-13T15:34:03.756Z,99925.78
2023-03-13T15:38:11.186Z,99923.53
2023-03-13T15:42:13.882Z,99913.19
2023-03-13T15:46:16.970Z,99910.78
2023-03-13T15:50:22.585Z,99899.97
2023-03-13T15:54:26.589Z,99904.47
2023-03-13T15:58:30.353Z,99898.03
2023-03-13T16:02:33.368Z,99890.47
2023-03-13T16:06:36.334Z,99890.34
2023-03-13T16:10:38.970Z,99893.19
